Flight Track Log - Related Links

Times and Time Zones

All times are in EDT time to prevent confusion due to time zone crossing. See the SKW6446 flight status page for this flight to view local times or setup timezone preferences in your user account.

Time Position Orientation Groundspeed Altitude Reporting Facility
EDT Latitude Longitude Course Direction KTS MPH feet Rate Location/Type
Thu 08:18:30 PM 33.9500 -118.4500 276° West 142 163 1,900  Level Southern California TRACON
Thu 08:19:09 PM 33.9531 -118.4881 276° West 168 193 2,700 1,604 Climbing Los Angeles Center
Thu 08:20:11 PM 33.9636 -118.5567 281° West 192 221 4,600 1,654 Climbing Los Angeles Center
Thu 08:21:16 PM 33.9714 -118.6197 278° West 191 220 6,200 1,536 Climbing Los Angeles Center
Thu 08:22:16 PM 33.9861 -118.6922 284° West 206 237 7,800 1,377 Climbing Los Angeles Center
Thu 08:23:18 PM 34.0094 -118.7608 292° West 220 253 9,000 576 Climbing Los Angeles Center
Thu 08:24:21 PM 34.0389 -118.8381 295° West 249 287 9,000  Level Los Angeles Center
Thu 08:25:23 PM 34.0706 -118.9139 297° West 252 290 9,000  Level Los Angeles Center
Thu 08:26:25 PM 34.1117 -118.9814 306° West 251 289 9,000 192 Level Los Angeles Center
Thu 08:27:28 PM 34.1581 -119.0403 314° West 243 280 9,400 912 Climbing Los Angeles Center
Thu 08:28:30 PM 34.2158 -119.0972 321° Northwest 222 255 10,900 1,355 Climbing Los Angeles Center
Thu 08:29:32 PM 34.2636 -119.1411 323° Northwest 216 249 12,200 1,104 Climbing Los Angeles Center
Thu 08:30:35 PM 34.3117 -119.1844 323° Northwest 215 247 13,200 857 Climbing Los Angeles Center
Thu 08:31:38 PM 34.3606 -119.2289 323° Northwest 219 252 14,000 387 Climbing Los Angeles Center
Thu 08:32:39 PM 34.3922 -119.3003 298° West 253 291 14,000  Level Los Angeles Center
Thu 08:33:42 PM 34.4144 -119.4025 285° West 262 302 14,000 -48 Level Los Angeles Center
Thu 08:34:44 PM 34.4356 -119.4878 287° West 265 305 13,900 -48 Descending Los Angeles Center
Thu 08:35:46 PM 34.4586 -119.5742 288° West 270 311 13,900  Level Los Angeles Center
Thu 08:36:49 PM 34.4808 -119.6603 287° West 268 308 13,900  Level Los Angeles Center
Thu 08:37:51 PM 34.5033 -119.7453 288° West 266 306 13,900 -252 Level Los Angeles Center
Thu 08:38:48 PM 34.5397 -119.8378 296° West 275 316 13,400 -831 Descending Los Angeles Center
Thu 08:40:01 PM 34.5892 -119.9342 302° West 284 327 12,100 -1,353 Descending Los Angeles Center
Thu 08:41:01 PM 34.6272 -120.0186 299° West 269 310 10,400 -1,706 Descending Los Angeles Center
Thu 08:41:50 PM 34.6564 -120.0822 299° West 265 305 9,000 -1,689 Descending Los Angeles Center
Thu 08:42:44 PM 34.6931 -120.1411 307° West 249 287 7,500 -1,562 Descending Los Angeles Center
Thu 08:43:03 PM 34.7061 -120.1594 311° West 252 290 7,100 -1,522 Descending Los Angeles Center
Thu 08:43:51 PM 34.7367 -120.2133 305° West 236 272 5,800 -1,376 Descending Los Angeles Center
Thu 08:44:52 PM 34.7689 -120.2711 304° West 218 251 4,600 -1,184 Descending Los Angeles Center
Thu 08:45:07 PM 34.7764 -120.2839 306° West 222 255 4,300 -1,500 Descending Los Angeles Center
Thu 08:46:04 PM 34.8081 -120.3422 303° West 208 239 2,800 -1,579 Descending Los Angeles Center

Login

Don't have an account? Register now (free) for customized features, flight alerts, and more!